KIWD 152156Z AUTO 33005KT 4SM HZ CLR 21/17 A3000 RMK AO2 SLP157 T02060172